Aviation Digital Data Service (ADDS)

Output produced by METARs form (0347 UTC 20 April 2014)
found at http://aviationweather.gov/adds/metars/
 
KPQI 192354Z 2000/2024 32011G21KT P6SM SCT035 BKN045 OVC070 
     FM200200 33009KT P6SM BKN070 
     FM200600 33003KT P6SM SKC AMD LTD TO CLD VIS AND WIND